sensor_id;sensor_type;location;lat;lon;timestamp;P1;durP1;ratioP1;P2;durP2;ratioP2
66020;SDS011;52789;59.980;30.346;2024-01-11T00:01:35;1.50;;;1.37;;
66020;SDS011;52789;59.980;30.346;2024-01-11T00:04:02;1.40;;;1.13;;
66020;SDS011;52789;59.980;30.346;2024-01-11T00:06:27;1.40;;;1.30;;
66020;SDS011;52789;59.980;30.346;2024-01-11T00:08:53;2.80;;;1.30;;
66020;SDS011;52789;59.980;30.346;2024-01-11T00:11:19;1.70;;;1.60;;
66020;SDS011;52789;59.980;30.346;2024-01-11T00:13:44;1.93;;;1.40;;
66020;SDS011;52789;59.980;30.346;2024-01-11T00:16:10;1.60;;;1.50;;
66020;SDS011;52789;59.980;30.346;2024-01-11T00:18:35;2.07;;;1.20;;
66020;SDS011;52789;59.980;30.346;2024-01-11T00:21:00;1.43;;;1.30;;
66020;SDS011;52789;59.980;30.346;2024-01-11T00:23:26;2.40;;;1.20;;
66020;SDS011;52789;59.980;30.346;2024-01-11T00:25:52;1.60;;;1.50;;
66020;SDS011;52789;59.980;30.346;2024-01-11T00:28:18;1.70;;;1.60;;
66020;SDS011;52789;59.980;30.346;2024-01-11T00:30:43;1.60;;;1.50;;
66020;SDS011;52789;59.980;30.346;2024-01-11T00:33:09;1.50;;;1.40;;
66020;SDS011;52789;59.980;30.346;2024-01-11T00:35:34;1.70;;;1.53;;
66020;SDS011;52789;59.980;30.346;2024-01-11T00:38:00;1.50;;;1.40;;
66020;SDS011;52789;59.980;30.346;2024-01-11T00:40:25;3.00;;;1.40;;
66020;SDS011;52789;59.980;30.346;2024-01-11T00:42:51;3.67;;;1.70;;
66020;SDS011;52789;59.980;30.346;2024-01-11T00:45:16;1.60;;;1.50;;
66020;SDS011;52789;59.980;30.346;2024-01-11T00:47:43;3.70;;;1.60;;
66020;SDS011;52789;59.980;30.346;2024-01-11T00:50:08;3.13;;;1.50;;
66020;SDS011;52789;59.980;30.346;2024-01-11T00:52:34;1.60;;;1.50;;
66020;SDS011;52789;59.980;30.346;2024-01-11T00:55:00;1.83;;;1.47;;
66020;SDS011;52789;59.980;30.346;2024-01-11T00:57:25;1.63;;;1.30;;
66020;SDS011;52789;59.980;30.346;2024-01-11T00:59:51;1.40;;;1.30;;
66020;SDS011;52789;59.980;30.346;2024-01-11T01:02:16;1.50;;;1.40;;
66020;SDS011;52789;59.980;30.346;2024-01-11T01:04:46;3.43;;;1.30;;
66020;SDS011;52789;59.980;30.346;2024-01-11T01:07:11;3.37;;;1.30;;
66020;SDS011;52789;59.980;30.346;2024-01-11T01:09:37;1.27;;;1.17;;
66020;SDS011;52789;59.980;30.346;2024-01-11T01:12:02;1.47;;;1.30;;
66020;SDS011;52789;59.980;30.346;2024-01-11T01:14:28;1.50;;;1.20;;
66020;SDS011;52789;59.980;30.346;2024-01-11T01:16:54;2.60;;;1.30;;
66020;SDS011;52789;59.980;30.346;2024-01-11T01:19:19;1.60;;;1.50;;
66020;SDS011;52789;59.980;30.346;2024-01-11T01:21:45;1.30;;;1.20;;
66020;SDS011;52789;59.980;30.346;2024-01-11T01:24:10;1.23;;;1.13;;
66020;SDS011;52789;59.980;30.346;2024-01-11T01:26:36;1.40;;;1.30;;
66020;SDS011;52789;59.980;30.346;2024-01-11T01:29:01;1.47;;;1.37;;
66020;SDS011;52789;59.980;30.346;2024-01-11T01:31:27;1.30;;;1.20;;
66020;SDS011;52789;59.980;30.346;2024-01-11T01:33:52;1.30;;;1.20;;
66020;SDS011;52789;59.980;30.346;2024-01-11T01:36:18;1.30;;;1.20;;
66020;SDS011;52789;59.980;30.346;2024-01-11T01:38:43;1.63;;;1.23;;
66020;SDS011;52789;59.980;30.346;2024-01-11T01:41:09;1.83;;;1.10;;
66020;SDS011;52789;59.980;30.346;2024-01-11T01:43:34;1.20;;;1.10;;
66020;SDS011;52789;59.980;30.346;2024-01-11T01:46:00;1.13;;;1.03;;
66020;SDS011;52789;59.980;30.346;2024-01-11T01:48:26;1.23;;;1.13;;
66020;SDS011;52789;59.980;30.346;2024-01-11T01:50:52;1.20;;;1.10;;
66020;SDS011;52789;59.980;30.346;2024-01-11T01:53:19;1.30;;;1.20;;
66020;SDS011;52789;59.980;30.346;2024-01-11T01:55:47;1.58;;;1.48;;
66020;SDS011;52789;59.980;30.346;2024-01-11T01:58:13;1.33;;;1.23;;
66020;SDS011;52789;59.980;30.346;2024-01-11T02:00:41;1.10;;;1.00;;
66020;SDS011;52789;59.980;30.346;2024-01-11T02:03:08;1.20;;;1.10;;
66020;SDS011;52789;59.980;30.346;2024-01-11T02:05:35;1.17;;;1.10;;
66020;SDS011;52789;59.980;30.346;2024-01-11T02:08:03;1.20;;;1.10;;
66020;SDS011;52789;59.980;30.346;2024-01-11T02:10:33;1.43;;;1.33;;
66020;SDS011;52789;59.980;30.346;2024-01-11T02:13:01;1.30;;;1.20;;
66020;SDS011;52789;59.980;30.346;2024-01-11T02:15:26;1.20;;;1.10;;
66020;SDS011;52789;59.980;30.346;2024-01-11T02:17:52;1.00;;;1.00;;
66020;SDS011;52789;59.980;30.346;2024-01-11T02:20:18;1.10;;;1.10;;
66020;SDS011;52789;59.980;30.346;2024-01-11T02:22:46;1.60;;;1.03;;
66020;SDS011;52789;59.980;30.346;2024-01-11T02:25:15;1.20;;;1.17;;
66020;SDS011;52789;59.980;30.346;2024-01-11T02:27:47;1.00;;;1.00;;
66020;SDS011;52789;59.980;30.346;2024-01-11T02:30:14;1.30;;;1.20;;
66020;SDS011;52789;59.980;30.346;2024-01-11T02:32:40;1.97;;;1.20;;
66020;SDS011;52789;59.980;30.346;2024-01-11T02:35:08;1.53;;;1.43;;
66020;SDS011;52789;59.980;30.346;2024-01-11T02:37:33;7.43;;;1.10;;
66020;SDS011;52789;59.980;30.346;2024-01-11T02:40:01;1.03;;;1.03;;
66020;SDS011;52789;59.980;30.346;2024-01-11T02:42:29;1.00;;;1.00;;
66020;SDS011;52789;59.980;30.346;2024-01-11T02:44:54;1.20;;;1.10;;
66020;SDS011;52789;59.980;30.346;2024-01-11T02:47:20;1.20;;;1.10;;
66020;SDS011;52789;59.980;30.346;2024-01-11T02:49:45;1.20;;;1.10;;
66020;SDS011;52789;59.980;30.346;2024-01-11T02:52:11;1.30;;;1.20;;
66020;SDS011;52789;59.980;30.346;2024-01-11T02:54:36;1.00;;;1.00;;
66020;SDS011;52789;59.980;30.346;2024-01-11T02:57:02;1.33;;;1.13;;
66020;SDS011;52789;59.980;30.346;2024-01-11T02:59:27;1.10;;;1.10;;
66020;SDS011;52789;59.980;30.346;2024-01-11T03:01:53;1.30;;;1.20;;
66020;SDS011;52789;59.980;30.346;2024-01-11T03:04:20;1.00;;;1.00;;
66020;SDS011;52789;59.980;30.346;2024-01-11T03:06:45;1.40;;;1.30;;
66020;SDS011;52789;59.980;30.346;2024-01-11T03:09:11;1.30;;;1.20;;
66020;SDS011;52789;59.980;30.346;2024-01-11T03:11:36;1.30;;;1.20;;
66020;SDS011;52789;59.980;30.346;2024-01-11T03:14:02;1.30;;;1.20;;
66020;SDS011;52789;59.980;30.346;2024-01-11T03:16:28;1.07;;;1.07;;
66020;SDS011;52789;59.980;30.346;2024-01-11T03:18:54;4.20;;;1.33;;
66020;SDS011;52789;59.980;30.346;2024-01-11T03:21:19;1.30;;;1.20;;
66020;SDS011;52789;59.980;30.346;2024-01-11T03:23:45;3.47;;;1.53;;
66020;SDS011;52789;59.980;30.346;2024-01-11T03:26:14;1.60;;;1.50;;
66020;SDS011;52789;59.980;30.346;2024-01-11T03:28:41;1.23;;;1.20;;
66020;SDS011;52789;59.980;30.346;2024-01-11T03:31:07;2.50;;;1.37;;
66020;SDS011;52789;59.980;30.346;2024-01-11T03:33:34;1.50;;;1.30;;
66020;SDS011;52789;59.980;30.346;2024-01-11T03:35:59;2.53;;;1.30;;
66020;SDS011;52789;59.980;30.346;2024-01-11T03:38:25;1.50;;;1.40;;
66020;SDS011;52789;59.980;30.346;2024-01-11T03:40:51;1.50;;;1.40;;
66020;SDS011;52789;59.980;30.346;2024-01-11T03:43:17;1.50;;;1.40;;
66020;SDS011;52789;59.980;30.346;2024-01-11T03:45:43;1.70;;;1.60;;
66020;SDS011;52789;59.980;30.346;2024-01-11T03:48:08;1.73;;;1.50;;
66020;SDS011;52789;59.980;30.346;2024-01-11T03:50:34;1.50;;;1.40;;
66020;SDS011;52789;59.980;30.346;2024-01-11T03:52:59;1.60;;;1.50;;
66020;SDS011;52789;59.980;30.346;2024-01-11T03:55:25;1.57;;;1.47;;
66020;SDS011;52789;59.980;30.346;2024-01-11T03:57:51;1.73;;;1.63;;
66020;SDS011;52789;59.980;30.346;2024-01-11T04:00:17;1.50;;;1.40;;
66020;SDS011;52789;59.980;30.346;2024-01-11T04:02:43;2.00;;;1.80;;
66020;SDS011;52789;59.980;30.346;2024-01-11T04:05:13;1.50;;;1.40;;
66020;SDS011;52789;59.980;30.346;2024-01-11T04:07:40;1.50;;;1.40;;
66020;SDS011;52789;59.980;30.346;2024-01-11T04:10:06;1.50;;;1.40;;
66020;SDS011;52789;59.980;30.346;2024-01-11T04:12:33;1.50;;;1.40;;
66020;SDS011;52789;59.980;30.346;2024-01-11T04:14:59;2.77;;;2.20;;
66020;SDS011;52789;59.980;30.346;2024-01-11T04:17:24;2.73;;;1.60;;
66020;SDS011;52789;59.980;30.346;2024-01-11T04:19:50;1.93;;;1.83;;
66020;SDS011;52789;59.980;30.346;2024-01-11T04:22:15;1.60;;;1.50;;
66020;SDS011;52789;59.980;30.346;2024-01-11T04:24:41;1.70;;;1.60;;
66020;SDS011;52789;59.980;30.346;2024-01-11T04:27:08;1.67;;;1.58;;
66020;SDS011;52789;59.980;30.346;2024-01-11T04:29:33;3.83;;;1.63;;
66020;SDS011;52789;59.980;30.346;2024-01-11T04:31:59;1.40;;;1.30;;
66020;SDS011;52789;59.980;30.346;2024-01-11T04:34:24;1.80;;;1.70;;
66020;SDS011;52789;59.980;30.346;2024-01-11T04:36:50;1.57;;;1.47;;
66020;SDS011;52789;59.980;30.346;2024-01-11T04:39:15;1.60;;;1.50;;
66020;SDS011;52789;59.980;30.346;2024-01-11T04:41:41;1.70;;;1.60;;
66020;SDS011;52789;59.980;30.346;2024-01-11T04:44:06;1.80;;;1.70;;
66020;SDS011;52789;59.980;30.346;2024-01-11T04:46:32;1.90;;;1.80;;
66020;SDS011;52789;59.980;30.346;2024-01-11T04:48:57;1.60;;;1.50;;
66020;SDS011;52789;59.980;30.346;2024-01-11T04:51:23;2.10;;;1.73;;
66020;SDS011;52789;59.980;30.346;2024-01-11T04:53:48;1.80;;;1.70;;
66020;SDS011;52789;59.980;30.346;2024-01-11T04:56:14;1.97;;;1.87;;
66020;SDS011;52789;59.980;30.346;2024-01-11T04:58:41;1.70;;;1.60;;
66020;SDS011;52789;59.980;30.346;2024-01-11T05:01:11;2.40;;;1.70;;
66020;SDS011;52789;59.980;30.346;2024-01-11T05:03:44;1.95;;;1.85;;
66020;SDS011;52789;59.980;30.346;2024-01-11T05:06:14;2.00;;;1.90;;
66020;SDS011;52789;59.980;30.346;2024-01-11T05:08:41;2.30;;;2.17;;
66020;SDS011;52789;59.980;30.346;2024-01-11T05:11:07;2.27;;;2.13;;
66020;SDS011;52789;59.980;30.346;2024-01-11T05:13:32;2.20;;;2.10;;
66020;SDS011;52789;59.980;30.346;2024-01-11T05:15:58;2.10;;;2.00;;
66020;SDS011;52789;59.980;30.346;2024-01-11T05:18:23;1.90;;;1.80;;
66020;SDS011;52789;59.980;30.346;2024-01-11T05:20:49;2.43;;;2.23;;
66020;SDS011;52789;59.980;30.346;2024-01-11T05:23:14;3.10;;;2.70;;
66020;SDS011;52789;59.980;30.346;2024-01-11T05:25:40;2.10;;;1.90;;
66020;SDS011;52789;59.980;30.346;2024-01-11T05:28:05;1.97;;;1.87;;
66020;SDS011;52789;59.980;30.346;2024-01-11T05:30:31;2.27;;;2.07;;
66020;SDS011;52789;59.980;30.346;2024-01-11T05:32:58;4.13;;;2.25;;
66020;SDS011;52789;59.980;30.346;2024-01-11T05:35:23;2.37;;;2.10;;
66020;SDS011;52789;59.980;30.346;2024-01-11T05:37:52;2.15;;;1.95;;
66020;SDS011;52789;59.980;30.346;2024-01-11T05:40:19;2.28;;;2.05;;
66020;SDS011;52789;59.980;30.346;2024-01-11T05:42:45;3.20;;;2.57;;
66020;SDS011;52789;59.980;30.346;2024-01-11T05:45:10;3.83;;;2.40;;
66020;SDS011;52789;59.980;30.346;2024-01-11T05:47:36;2.60;;;2.37;;
66020;SDS011;52789;59.980;30.346;2024-01-11T05:50:02;4.60;;;2.90;;
66020;SDS011;52789;59.980;30.346;2024-01-11T05:52:29;3.63;;;2.42;;
66020;SDS011;52789;59.980;30.346;2024-01-11T05:54:54;2.63;;;2.30;;
66020;SDS011;52789;59.980;30.346;2024-01-11T05:57:20;2.70;;;2.50;;
66020;SDS011;52789;59.980;30.346;2024-01-11T05:59:45;2.40;;;2.20;;
66020;SDS011;52789;59.980;30.346;2024-01-11T06:02:12;3.50;;;2.27;;
66020;SDS011;52789;59.980;30.346;2024-01-11T06:04:38;2.85;;;2.45;;
66020;SDS011;52789;59.980;30.346;2024-01-11T06:07:04;3.43;;;2.50;;
66020;SDS011;52789;59.980;30.346;2024-01-11T06:09:30;2.50;;;2.30;;
66020;SDS011;52789;59.980;30.346;2024-01-11T06:11:55;2.27;;;2.07;;
66020;SDS011;52789;59.980;30.346;2024-01-11T06:14:21;5.43;;;2.10;;
66020;SDS011;52789;59.980;30.346;2024-01-11T06:16:46;3.00;;;2.07;;
66020;SDS011;52789;59.980;30.346;2024-01-11T06:19:12;2.60;;;2.37;;
66020;SDS011;52789;59.980;30.346;2024-01-11T06:21:37;5.50;;;2.80;;
66020;SDS011;52789;59.980;30.346;2024-01-11T06:24:03;2.07;;;1.93;;
66020;SDS011;52789;59.980;30.346;2024-01-11T06:26:29;5.13;;;2.47;;
66020;SDS011;52789;59.980;30.346;2024-01-11T06:28:55;2.20;;;2.00;;
66020;SDS011;52789;59.980;30.346;2024-01-11T06:31:20;5.50;;;3.30;;
66020;SDS011;52789;59.980;30.346;2024-01-11T06:33:46;3.33;;;2.87;;
66020;SDS011;52789;59.980;30.346;2024-01-11T06:36:12;5.33;;;2.77;;
66020;SDS011;52789;59.980;30.346;2024-01-11T06:38:38;2.80;;;2.60;;
66020;SDS011;52789;59.980;30.346;2024-01-11T06:41:03;3.73;;;2.00;;
66020;SDS011;52789;59.980;30.346;2024-01-11T06:43:28;3.90;;;2.10;;
66020;SDS011;52789;59.980;30.346;2024-01-11T06:45:54;2.20;;;1.90;;
66020;SDS011;52789;59.980;30.346;2024-01-11T06:48:19;2.40;;;2.20;;
66020;SDS011;52789;59.980;30.346;2024-01-11T06:50:45;2.30;;;2.10;;
66020;SDS011;52789;59.980;30.346;2024-01-11T06:53:11;6.00;;;2.60;;
66020;SDS011;52789;59.980;30.346;2024-01-11T06:55:36;3.60;;;2.03;;
66020;SDS011;52789;59.980;30.346;2024-01-11T06:58:02;4.53;;;2.17;;
66020;SDS011;52789;59.980;30.346;2024-01-11T07:00:27;2.20;;;2.10;;
66020;SDS011;52789;59.980;30.346;2024-01-11T07:02:54;15.83;;;3.30;;
66020;SDS011;52789;59.980;30.346;2024-01-11T07:05:20;2.83;;;2.42;;
66020;SDS011;52789;59.980;30.346;2024-01-11T07:07:46;2.67;;;2.13;;
66020;SDS011;52789;59.980;30.346;2024-01-11T07:10:11;4.78;;;2.80;;
66020;SDS011;52789;59.980;30.346;2024-01-11T07:12:37;7.03;;;2.70;;
66020;SDS011;52789;59.980;30.346;2024-01-11T07:15:04;3.20;;;2.88;;
66020;SDS011;52789;59.980;30.346;2024-01-11T07:17:30;3.00;;;2.70;;
66020;SDS011;52789;59.980;30.346;2024-01-11T07:19:55;4.83;;;2.80;;
66020;SDS011;52789;59.980;30.346;2024-01-11T07:22:21;3.27;;;2.17;;
66020;SDS011;52789;59.980;30.346;2024-01-11T07:24:47;2.67;;;2.40;;
66020;SDS011;52789;59.980;30.346;2024-01-11T07:27:12;3.37;;;2.70;;
66020;SDS011;52789;59.980;30.346;2024-01-11T07:29:38;4.90;;;3.33;;
66020;SDS011;52789;59.980;30.346;2024-01-11T07:32:04;7.87;;;4.17;;
66020;SDS011;52789;59.980;30.346;2024-01-11T07:34:30;2.87;;;2.53;;
66020;SDS011;52789;59.980;30.346;2024-01-11T07:36:55;2.97;;;2.73;;
66020;SDS011;52789;59.980;30.346;2024-01-11T07:39:22;3.67;;;3.22;;
66020;SDS011;52789;59.980;30.346;2024-01-11T07:41:48;4.60;;;2.70;;
66020;SDS011;52789;59.980;30.346;2024-01-11T07:44:14;7.93;;;3.17;;
66020;SDS011;52789;59.980;30.346;2024-01-11T07:46:39;3.17;;;2.57;;
66020;SDS011;52789;59.980;30.346;2024-01-11T07:49:05;5.17;;;2.70;;
66020;SDS011;52789;59.980;30.346;2024-01-11T07:51:32;2.72;;;2.53;;
66020;SDS011;52789;59.980;30.346;2024-01-11T07:53:58;7.25;;;3.50;;
66020;SDS011;52789;59.980;30.346;2024-01-11T07:56:24;5.87;;;3.13;;
66020;SDS011;52789;59.980;30.346;2024-01-11T07:58:49;4.73;;;2.50;;
66020;SDS011;52789;59.980;30.346;2024-01-11T08:01:15;10.43;;;3.97;;
66020;SDS011;52789;59.980;30.346;2024-01-11T08:03:41;3.00;;;2.70;;
66020;SDS011;52789;59.980;30.346;2024-01-11T08:06:10;4.65;;;2.95;;
66020;SDS011;52789;59.980;30.346;2024-01-11T08:08:36;4.32;;;2.72;;
66020;SDS011;52789;59.980;30.346;2024-01-11T08:11:04;2.45;;;2.25;;
66020;SDS011;52789;59.980;30.346;2024-01-11T08:13:32;3.92;;;3.40;;
66020;SDS011;52789;59.980;30.346;2024-01-11T08:16:02;5.25;;;3.50;;
66020;SDS011;52789;59.980;30.346;2024-01-11T08:18:32;6.60;;;3.25;;
66020;SDS011;52789;59.980;30.346;2024-01-11T08:20:58;5.43;;;3.42;;
66020;SDS011;52789;59.980;30.346;2024-01-11T08:23:23;3.97;;;2.90;;
66020;SDS011;52789;59.980;30.346;2024-01-11T08:25:49;5.23;;;3.53;;
66020;SDS011;52789;59.980;30.346;2024-01-11T08:28:14;4.13;;;3.13;;
66020;SDS011;52789;59.980;30.346;2024-01-11T08:30:40;4.03;;;3.30;;
66020;SDS011;52789;59.980;30.346;2024-01-11T08:33:07;3.35;;;2.85;;
66020;SDS011;52789;59.980;30.346;2024-01-11T08:35:33;5.57;;;2.93;;
66020;SDS011;52789;59.980;30.346;2024-01-11T08:37:58;4.13;;;3.33;;
66020;SDS011;52789;59.980;30.346;2024-01-11T08:40:24;2.83;;;2.50;;
66020;SDS011;52789;59.980;30.346;2024-01-11T08:42:50;6.30;;;4.57;;
66020;SDS011;52789;59.980;30.346;2024-01-11T08:45:16;3.23;;;2.93;;
66020;SDS011;52789;59.980;30.346;2024-01-11T08:47:46;6.80;;;2.72;;
66020;SDS011;52789;59.980;30.346;2024-01-11T08:50:15;2.75;;;2.55;;
66020;SDS011;52789;59.980;30.346;2024-01-11T08:52:41;4.03;;;2.58;;
66020;SDS011;52789;59.980;30.346;2024-01-11T08:55:07;2.60;;;2.38;;
66020;SDS011;52789;59.980;30.346;2024-01-11T08:57:33;2.90;;;2.70;;
66020;SDS011;52789;59.980;30.346;2024-01-11T09:00:03;3.92;;;2.58;;
66020;SDS011;52789;59.980;30.346;2024-01-11T09:02:33;3.25;;;2.90;;
66020;SDS011;52789;59.980;30.346;2024-01-11T09:04:59;2.97;;;2.70;;
66020;SDS011;52789;59.980;30.346;2024-01-11T09:07:25;3.20;;;2.90;;
66020;SDS011;52789;59.980;30.346;2024-01-11T09:09:50;3.47;;;2.83;;
66020;SDS011;52789;59.980;30.346;2024-01-11T09:12:16;4.80;;;2.97;;
66020;SDS011;52789;59.980;30.346;2024-01-11T09:14:41;3.87;;;2.93;;
66020;SDS011;52789;59.980;30.346;2024-01-11T09:17:17;3.53;;;2.92;;
66020;SDS011;52789;59.980;30.346;2024-01-11T09:19:45;3.50;;;2.35;;
66020;SDS011;52789;59.980;30.346;2024-01-11T09:22:10;3.70;;;2.90;;
66020;SDS011;52789;59.980;30.346;2024-01-11T09:24:36;4.30;;;2.70;;
66020;SDS011;52789;59.980;30.346;2024-01-11T09:27:01;3.03;;;2.83;;
66020;SDS011;52789;59.980;30.346;2024-01-11T09:29:29;2.45;;;2.25;;
66020;SDS011;52789;59.980;30.346;2024-01-11T09:31:55;2.50;;;2.30;;
66020;SDS011;52789;59.980;30.346;2024-01-11T09:34:20;3.07;;;2.70;;
66020;SDS011;52789;59.980;30.346;2024-01-11T09:36:45;3.60;;;3.00;;
66020;SDS011;52789;59.980;30.346;2024-01-11T09:39:11;5.50;;;3.10;;
66020;SDS011;52789;59.980;30.346;2024-01-11T09:41:38;3.35;;;3.05;;
66020;SDS011;52789;59.980;30.346;2024-01-11T09:44:08;2.85;;;2.55;;
66020;SDS011;52789;59.980;30.346;2024-01-11T09:46:34;3.37;;;2.97;;
66020;SDS011;52789;59.980;30.346;2024-01-11T09:49:00;2.60;;;2.40;;
66020;SDS011;52789;59.980;30.346;2024-01-11T09:51:29;6.78;;;4.20;;
66020;SDS011;52789;59.980;30.346;2024-01-11T09:53:55;4.30;;;2.90;;
66020;SDS011;52789;59.980;30.346;2024-01-11T09:56:23;5.18;;;3.17;;
66020;SDS011;52789;59.980;30.346;2024-01-11T09:58:51;4.07;;;2.35;;
66020;SDS011;52789;59.980;30.346;2024-01-11T10:01:16;4.33;;;2.50;;
66020;SDS011;52789;59.980;30.346;2024-01-11T10:03:43;2.70;;;2.50;;
66020;SDS011;52789;59.980;30.346;2024-01-11T10:06:11;3.85;;;3.45;;
66020;SDS011;52789;59.980;30.346;2024-01-11T10:08:37;3.72;;;2.72;;
66020;SDS011;52789;59.980;30.346;2024-01-11T10:11:03;2.90;;;2.70;;
66020;SDS011;52789;59.980;30.346;2024-01-11T10:13:29;3.10;;;2.73;;
66020;SDS011;52789;59.980;30.346;2024-01-11T10:16:07;3.08;;;2.88;;
66020;SDS011;52789;59.980;30.346;2024-01-11T10:18:38;3.90;;;3.60;;
66020;SDS011;52789;59.980;30.346;2024-01-11T10:21:04;4.85;;;3.53;;
66020;SDS011;52789;59.980;30.346;2024-01-11T10:23:33;4.28;;;2.95;;
66020;SDS011;52789;59.980;30.346;2024-01-11T10:26:00;3.25;;;2.95;;
66020;SDS011;52789;59.980;30.346;2024-01-11T10:28:25;5.30;;;2.70;;
66020;SDS011;52789;59.980;30.346;2024-01-11T10:30:52;3.28;;;2.60;;
66020;SDS011;52789;59.980;30.346;2024-01-11T10:33:21;6.60;;;3.67;;
66020;SDS011;52789;59.980;30.346;2024-01-11T10:35:47;6.07;;;3.95;;
66020;SDS011;52789;59.980;30.346;2024-01-11T10:38:17;3.83;;;3.30;;
66020;SDS011;52789;59.980;30.346;2024-01-11T10:40:43;4.38;;;3.30;;
66020;SDS011;52789;59.980;30.346;2024-01-11T10:43:09;4.75;;;4.28;;
66020;SDS011;52789;59.980;30.346;2024-01-11T10:45:36;12.20;;;3.10;;
66020;SDS011;52789;59.980;30.346;2024-01-11T10:48:09;4.68;;;4.00;;
66020;SDS011;52789;59.980;30.346;2024-01-11T10:50:44;8.07;;;3.88;;
66020;SDS011;52789;59.980;30.346;2024-01-11T10:55:42;6.55;;;3.17;;
66020;SDS011;52789;59.980;30.346;2024-01-11T10:58:09;4.65;;;3.47;;
66020;SDS011;52789;59.980;30.346;2024-01-11T11:00:36;3.85;;;3.42;;
66020;SDS011;52789;59.980;30.346;2024-01-11T11:03:03;6.13;;;3.67;;
66020;SDS011;52789;59.980;30.346;2024-01-11T11:05:31;5.33;;;2.90;;
66020;SDS011;52789;59.980;30.346;2024-01-11T11:08:00;5.88;;;3.88;;
66020;SDS011;52789;59.980;30.346;2024-01-11T11:10:27;3.85;;;3.08;;
66020;SDS011;52789;59.980;30.346;2024-01-11T11:12:55;6.00;;;3.58;;
66020;SDS011;52789;59.980;30.346;2024-01-11T11:15:24;7.55;;;4.03;;
66020;SDS011;52789;59.980;30.346;2024-01-11T11:17:53;6.22;;;3.10;;
66020;SDS011;52789;59.980;30.346;2024-01-11T11:20:19;4.20;;;3.67;;
66020;SDS011;52789;59.980;30.346;2024-01-11T11:22:48;6.17;;;3.27;;
66020;SDS011;52789;59.980;30.346;2024-01-11T11:25:29;9.30;;;4.05;;
66020;SDS011;52789;59.980;30.346;2024-01-11T11:27:55;5.72;;;4.25;;
66020;SDS011;52789;59.980;30.346;2024-01-11T11:30:21;5.53;;;3.47;;
66020;SDS011;52789;59.980;30.346;2024-01-11T11:32:46;3.33;;;2.87;;
66020;SDS011;52789;59.980;30.346;2024-01-11T11:35:12;5.80;;;3.77;;
66020;SDS011;52789;59.980;30.346;2024-01-11T11:37:38;7.73;;;5.53;;
66020;SDS011;52789;59.980;30.346;2024-01-11T11:40:08;4.40;;;3.80;;
66020;SDS011;52789;59.980;30.346;2024-01-11T11:42:38;4.28;;;3.33;;
66020;SDS011;52789;59.980;30.346;2024-01-11T11:45:05;6.00;;;4.38;;
66020;SDS011;52789;59.980;30.346;2024-01-11T11:47:36;5.43;;;4.72;;
66020;SDS011;52789;59.980;30.346;2024-01-11T11:50:11;10.55;;;3.33;;
66020;SDS011;52789;59.980;30.346;2024-01-11T11:52:37;4.18;;;3.72;;
66020;SDS011;52789;59.980;30.346;2024-01-11T11:55:05;8.13;;;2.90;;
66020;SDS011;52789;59.980;30.346;2024-01-11T11:57:32;7.45;;;3.83;;
66020;SDS011;52789;59.980;30.346;2024-01-11T11:59:59;6.57;;;4.38;;
66020;SDS011;52789;59.980;30.346;2024-01-11T12:02:25;12.00;;;4.82;;
66020;SDS011;52789;59.980;30.346;2024-01-11T12:04:52;10.25;;;4.97;;
66020;SDS011;52789;59.980;30.346;2024-01-11T12:07:19;5.03;;;3.42;;
66020;SDS011;52789;59.980;30.346;2024-01-11T12:09:46;6.60;;;3.53;;
66020;SDS011;52789;59.980;30.346;2024-01-11T12:12:12;8.00;;;5.00;;
66020;SDS011;52789;59.980;30.346;2024-01-11T12:14:38;8.10;;;5.10;;
66020;SDS011;52789;59.980;30.346;2024-01-11T12:17:05;8.27;;;3.80;;
66020;SDS011;52789;59.980;30.346;2024-01-11T12:19:31;5.65;;;3.30;;
66020;SDS011;52789;59.980;30.346;2024-01-11T12:21:57;6.43;;;3.70;;
66020;SDS011;52789;59.980;30.346;2024-01-11T12:24:23;6.05;;;3.50;;
66020;SDS011;52789;59.980;30.346;2024-01-11T12:26:49;6.43;;;4.10;;
66020;SDS011;52789;59.980;30.346;2024-01-11T12:29:22;7.43;;;3.55;;
66020;SDS011;52789;59.980;30.346;2024-01-11T12:31:49;4.07;;;3.37;;
66020;SDS011;52789;59.980;30.346;2024-01-11T12:34:15;4.28;;;3.65;;
66020;SDS011;52789;59.980;30.346;2024-01-11T12:36:41;5.30;;;3.70;;
66020;SDS011;52789;59.980;30.346;2024-01-11T12:39:07;7.73;;;4.00;;
66020;SDS011;52789;59.980;30.346;2024-01-11T12:41:35;4.78;;;3.60;;
66020;SDS011;52789;59.980;30.346;2024-01-11T12:44:01;3.78;;;2.88;;
66020;SDS011;52789;59.980;30.346;2024-01-11T12:46:27;4.70;;;3.55;;
66020;SDS011;52789;59.980;30.346;2024-01-11T12:48:52;3.23;;;2.93;;
66020;SDS011;52789;59.980;30.346;2024-01-11T12:51:18;6.83;;;3.70;;
66020;SDS011;52789;59.980;30.346;2024-01-11T12:53:45;6.05;;;3.45;;
66020;SDS011;52789;59.980;30.346;2024-01-11T12:56:11;3.55;;;3.15;;
66020;SDS011;52789;59.980;30.346;2024-01-11T12:58:40;13.90;;;4.10;;
66020;SDS011;52789;59.980;30.346;2024-01-11T13:01:06;5.00;;;3.33;;
66020;SDS011;52789;59.980;30.346;2024-01-11T13:03:35;5.53;;;3.90;;
66020;SDS011;52789;59.980;30.346;2024-01-11T13:06:03;3.65;;;3.00;;
66020;SDS011;52789;59.980;30.346;2024-01-11T13:08:34;5.65;;;3.45;;
66020;SDS011;52789;59.980;30.346;2024-01-11T13:11:01;4.63;;;4.07;;
66020;SDS011;52789;59.980;30.346;2024-01-11T13:13:35;7.90;;;3.33;;
66020;SDS011;52789;59.980;30.346;2024-01-11T13:16:01;3.85;;;3.20;;
66020;SDS011;52789;59.980;30.346;2024-01-11T13:18:34;6.60;;;3.17;;
66020;SDS011;52789;59.980;30.346;2024-01-11T13:21:00;3.65;;;2.60;;
66020;SDS011;52789;59.980;30.346;2024-01-11T13:23:25;4.10;;;3.53;;
66020;SDS011;52789;59.980;30.346;2024-01-11T13:25:51;5.17;;;2.90;;
66020;SDS011;52789;59.980;30.346;2024-01-11T13:28:17;6.40;;;4.13;;
66020;SDS011;52789;59.980;30.346;2024-01-11T13:30:44;5.25;;;3.25;;
66020;SDS011;52789;59.980;30.346;2024-01-11T13:33:11;7.68;;;3.83;;
66020;SDS011;52789;59.980;30.346;2024-01-11T13:35:37;6.03;;;2.97;;
66020;SDS011;52789;59.980;30.346;2024-01-11T13:38:04;6.65;;;3.03;;
66020;SDS011;52789;59.980;30.346;2024-01-11T13:40:31;3.97;;;2.63;;
66020;SDS011;52789;59.980;30.346;2024-01-11T13:42:57;4.50;;;2.70;;
66020;SDS011;52789;59.980;30.346;2024-01-11T13:45:27;7.05;;;3.30;;
66020;SDS011;52789;59.980;30.346;2024-01-11T13:47:53;4.82;;;4.05;;
66020;SDS011;52789;59.980;30.346;2024-01-11T13:52:52;7.47;;;4.03;;
66020;SDS011;52789;59.980;30.346;2024-01-11T13:55:30;5.53;;;4.00;;
66020;SDS011;52789;59.980;30.346;2024-01-11T13:58:02;5.72;;;3.08;;
66020;SDS011;52789;59.980;30.346;2024-01-11T14:00:28;4.15;;;3.80;;
66020;SDS011;52789;59.980;30.346;2024-01-11T14:02:54;11.53;;;3.70;;
66020;SDS011;52789;59.980;30.346;2024-01-11T14:05:19;7.47;;;3.67;;
66020;SDS011;52789;59.980;30.346;2024-01-11T14:07:45;4.10;;;3.70;;
66020;SDS011;52789;59.980;30.346;2024-01-11T14:10:11;5.40;;;3.27;;
66020;SDS011;52789;59.980;30.346;2024-01-11T14:12:38;6.65;;;3.40;;
66020;SDS011;52789;59.980;30.346;2024-01-11T14:15:07;5.30;;;3.50;;
66020;SDS011;52789;59.980;30.346;2024-01-11T14:17:36;5.05;;;3.55;;
66020;SDS011;52789;59.980;30.346;2024-01-11T14:20:03;5.80;;;3.20;;
66020;SDS011;52789;59.980;30.346;2024-01-11T14:22:31;5.70;;;4.60;;
66020;SDS011;52789;59.980;30.346;2024-01-11T14:24:57;6.37;;;3.67;;
66020;SDS011;52789;59.980;30.346;2024-01-11T14:27:23;6.53;;;3.95;;
66020;SDS011;52789;59.980;30.346;2024-01-11T14:29:48;9.67;;;3.57;;
66020;SDS011;52789;59.980;30.346;2024-01-11T14:32:15;6.03;;;3.40;;
66020;SDS011;52789;59.980;30.346;2024-01-11T14:34:42;4.22;;;3.83;;